sensor_id;sensor_type;location;lat;lon;timestamp;pressure;altitude;pressure_sealevel;temperature;humidity
79123;BME280;68526;44.600;26.032;2023-08-21T00:00:04;100575.03;;;24.26;58.43
79123;BME280;68526;44.600;26.032;2023-08-21T00:00:20;100577.78;;;24.30;58.71
79123;BME280;68526;44.600;26.032;2023-08-21T00:00:36;100577.03;;;24.25;58.68
79123;BME280;68526;44.600;26.032;2023-08-21T00:00:53;100572.25;;;24.26;58.71
79123;BME280;68526;44.600;26.032;2023-08-21T00:01:09;100572.25;;;24.26;58.95
79123;BME280;68526;44.600;26.032;2023-08-21T00:01:25;100571.81;;;24.24;59.03
79123;BME280;68526;44.600;26.032;2023-08-21T00:01:40;100572.25;;;24.22;58.91
79123;BME280;68526;44.600;26.032;2023-08-21T00:01:56;100573.03;;;24.23;59.03
79123;BME280;68526;44.600;26.032;2023-08-21T00:02:12;100576.66;;;24.20;58.93
79123;BME280;68526;44.600;26.032;2023-08-21T00:02:29;100576.25;;;24.21;59.09
79123;BME280;68526;44.600;26.032;2023-08-21T00:02:45;100569.06;;;24.20;59.04
79123;BME280;68526;44.600;26.032;2023-08-21T00:03:01;100569.03;;;24.24;58.52
79123;BME280;68526;44.600;26.032;2023-08-21T00:03:17;100574.25;;;24.22;58.98
79123;BME280;68526;44.600;26.032;2023-08-21T00:03:32;100577.03;;;24.25;58.43
79123;BME280;68526;44.600;26.032;2023-08-21T00:03:49;100575.03;;;24.22;59.02
79123;BME280;68526;44.600;26.032;2023-08-21T00:04:05;100578.22;;;24.24;58.66
79123;BME280;68526;44.600;26.032;2023-08-21T00:04:22;100573.81;;;24.23;58.92
79123;BME280;68526;44.600;26.032;2023-08-21T00:04:37;100576.22;;;24.25;58.64
79123;BME280;68526;44.600;26.032;2023-08-21T00:04:53;100573.41;;;24.25;58.86
79123;BME280;68526;44.600;26.032;2023-08-21T00:05:09;100572.63;;;24.24;58.56
79123;BME280;68526;44.600;26.032;2023-08-21T00:05:25;100570.63;;;24.25;58.46
79123;BME280;68526;44.600;26.032;2023-08-21T00:05:41;100568.59;;;24.29;58.02
79123;BME280;68526;44.600;26.032;2023-08-21T00:05:58;100571.81;;;24.31;58.30
79123;BME280;68526;44.600;26.032;2023-08-21T00:06:14;100573.00;;;24.34;58.20
79123;BME280;68526;44.600;26.032;2023-08-21T00:06:30;100570.19;;;24.30;58.18
79123;BME280;68526;44.600;26.032;2023-08-21T00:06:45;100569.03;;;24.28;58.52
79123;BME280;68526;44.600;26.032;2023-08-21T00:07:01;100567.03;;;24.24;58.37
79123;BME280;68526;44.600;26.032;2023-08-21T00:07:17;100569.00;;;24.31;57.98
79123;BME280;68526;44.600;26.032;2023-08-21T00:07:34;100571.03;;;24.27;58.43
79123;BME280;68526;44.600;26.032;2023-08-21T00:07:50;100570.66;;;24.21;58.50
79123;BME280;68526;44.600;26.032;2023-08-21T00:08:06;100577.03;;;24.22;58.57
79123;BME280;68526;44.600;26.032;2023-08-21T00:08:22;100569.06;;;24.20;58.61
79123;BME280;68526;44.600;26.032;2023-08-21T00:08:38;100570.28;;;24.19;58.47
79123;BME280;68526;44.600;26.032;2023-08-21T00:08:53;100565.84;;;24.22;58.76
79123;BME280;68526;44.600;26.032;2023-08-21T00:09:09;100569.44;;;24.26;58.26
79123;BME280;68526;44.600;26.032;2023-08-21T00:09:26;100573.00;;;24.30;58.14
79123;BME280;68526;44.600;26.032;2023-08-21T00:09:42;100570.59;;;24.29;57.92
79123;BME280;68526;44.600;26.032;2023-08-21T00:09:59;100569.00;;;24.31;58.24
79123;BME280;68526;44.600;26.032;2023-08-21T00:10:15;100570.19;;;24.30;58.13
79123;BME280;68526;44.600;26.032;2023-08-21T00:10:31;100569.41;;;24.30;58.36
79123;BME280;68526;44.600;26.032;2023-08-21T00:10:47;100576.22;;;24.25;58.67
79123;BME280;68526;44.600;26.032;2023-08-21T00:11:03;100572.66;;;24.21;58.76
79123;BME280;68526;44.600;26.032;2023-08-21T00:11:19;100575.03;;;24.22;58.27
79123;BME280;68526;44.600;26.032;2023-08-21T00:11:35;100575.03;;;24.26;58.52
79123;BME280;68526;44.600;26.032;2023-08-21T00:11:51;100575.00;;;24.30;58.26
79123;BME280;68526;44.600;26.032;2023-08-21T00:12:07;100573.78;;;24.31;58.06
79123;BME280;68526;44.600;26.032;2023-08-21T00:12:23;100575.00;;;24.33;57.94
79123;BME280;68526;44.600;26.032;2023-08-21T00:12:39;100571.81;;;24.31;58.48
79123;BME280;68526;44.600;26.032;2023-08-21T00:12:55;100575.41;;;24.28;58.46
79123;BME280;68526;44.600;26.032;2023-08-21T00:13:12;100573.41;;;24.29;58.26
79123;BME280;68526;44.600;26.032;2023-08-21T00:13:28;100579.38;;;24.31;58.04
79123;BME280;68526;44.600;26.032;2023-08-21T00:13:43;100570.22;;;24.27;58.53
79123;BME280;68526;44.600;26.032;2023-08-21T00:14:00;100574.25;;;24.22;58.63
79123;BME280;68526;44.600;26.032;2023-08-21T00:14:16;100573.44;;;24.21;58.60
79123;BME280;68526;44.600;26.032;2023-08-21T00:14:31;100575.03;;;24.19;58.62
79123;BME280;68526;44.600;26.032;2023-08-21T00:14:47;100584.69;;;24.14;59.04
79123;BME280;68526;44.600;26.032;2023-08-21T00:15:05;100577.09;;;24.15;58.53
79123;BME280;68526;44.600;26.032;2023-08-21T00:15:21;100578.25;;;24.17;58.64
79123;BME280;68526;44.600;26.032;2023-08-21T00:15:37;100573.47;;;24.18;58.29
79123;BME280;68526;44.600;26.032;2023-08-21T00:15:53;100571.06;;;24.16;58.82
79123;BME280;68526;44.600;26.032;2023-08-21T00:16:10;100577.50;;;24.13;58.70
79123;BME280;68526;44.600;26.032;2023-08-21T00:16:26;100568.31;;;24.09;58.77
79123;BME280;68526;44.600;26.032;2023-08-21T00:16:43;100577.50;;;24.13;58.67
79123;BME280;68526;44.600;26.032;2023-08-21T00:16:59;100569.09;;;24.10;58.66
79123;BME280;68526;44.600;26.032;2023-08-21T00:17:15;100578.28;;;24.14;58.43
79123;BME280;68526;44.600;26.032;2023-08-21T00:17:31;100566.69;;;24.15;58.42
79123;BME280;68526;44.600;26.032;2023-08-21T00:17:47;100577.50;;;24.13;58.74
79123;BME280;68526;44.600;26.032;2023-08-21T00:18:03;100577.09;;;24.11;58.81
79123;BME280;68526;44.600;26.032;2023-08-21T00:18:19;100570.69;;;24.11;58.53
79123;BME280;68526;44.600;26.032;2023-08-21T00:18:35;100556.78;;;23.96;58.95
79123;BME280;68526;44.600;26.032;2023-08-21T00:18:52;100572.72;;;24.07;58.62
79123;BME280;68526;44.600;26.032;2023-08-21T00:19:07;100573.50;;;24.11;58.50
79123;BME280;68526;44.600;26.032;2023-08-21T00:19:23;100578.31;;;24.07;58.91
79123;BME280;68526;44.600;26.032;2023-08-21T00:19:39;100568.72;;;24.04;58.91
79123;BME280;68526;44.600;26.032;2023-08-21T00:19:55;100572.31;;;24.05;58.62
79123;BME280;68526;44.600;26.032;2023-08-21T00:20:11;100571.13;;;24.09;58.44
79123;BME280;68526;44.600;26.032;2023-08-21T00:20:28;100568.69;;;24.11;58.40
79123;BME280;68526;44.600;26.032;2023-08-21T00:20:44;100569.09;;;24.10;58.30
79123;BME280;68526;44.600;26.032;2023-08-21T00:20:59;100575.50;;;24.10;58.26
79123;BME280;68526;44.600;26.032;2023-08-21T00:21:15;100567.09;;;24.10;58.33
79123;BME280;68526;44.600;26.032;2023-08-21T00:21:31;100570.31;;;24.09;58.52
79123;BME280;68526;44.600;26.032;2023-08-21T00:21:47;100570.69;;;24.07;58.70
79123;BME280;68526;44.600;26.032;2023-08-21T00:22:03;100569.91;;;24.07;58.81
79123;BME280;68526;44.600;26.032;2023-08-21T00:22:19;100567.94;;;24.00;58.88
79123;BME280;68526;44.600;26.032;2023-08-21T00:22:36;100566.34;;;23.95;59.10
79123;BME280;68526;44.600;26.032;2023-08-21T00:22:51;100571.16;;;23.98;58.97
79123;BME280;68526;44.600;26.032;2023-08-21T00:23:07;100573.94;;;24.02;58.59
79123;BME280;68526;44.600;26.032;2023-08-21T00:23:24;100568.34;;;24.02;58.64
79123;BME280;68526;44.600;26.032;2023-08-21T00:23:39;100569.53;;;24.05;58.46
79123;BME280;68526;44.600;26.032;2023-08-21T00:23:55;100568.34;;;23.98;58.96
79123;BME280;68526;44.600;26.032;2023-08-21T00:24:12;100573.16;;;23.94;58.99
79123;BME280;68526;44.600;26.032;2023-08-21T00:24:28;100571.16;;;23.98;58.92
79123;BME280;68526;44.600;26.032;2023-08-21T00:24:44;100574.75;;;24.03;58.52
79123;BME280;68526;44.600;26.032;2023-08-21T00:25:01;100575.53;;;24.03;58.54
79123;BME280;68526;44.600;26.032;2023-08-21T00:25:17;100575.53;;;24.03;58.48
79123;BME280;68526;44.600;26.032;2023-08-21T00:25:33;100575.50;;;24.07;58.41
79123;BME280;68526;44.600;26.032;2023-08-21T00:25:49;100566.72;;;24.05;58.56
79123;BME280;68526;44.600;26.032;2023-08-21T00:26:06;100561.59;;;23.96;58.62
79123;BME280;68526;44.600;26.032;2023-08-21T00:26:22;100565.53;;;24.06;58.73
79123;BME280;68526;44.600;26.032;2023-08-21T00:26:37;100576.31;;;24.07;58.78
79123;BME280;68526;44.600;26.032;2023-08-21T00:26:53;100567.53;;;24.09;58.49
79123;BME280;68526;44.600;26.032;2023-08-21T00:27:09;100569.53;;;24.08;58.19
79123;BME280;68526;44.600;26.032;2023-08-21T00:27:25;100567.09;;;24.10;58.07
79123;BME280;68526;44.600;26.032;2023-08-21T00:27:41;100577.09;;;24.11;58.37
79123;BME280;68526;44.600;26.032;2023-08-21T00:27:58;100564.34;;;23.99;58.35
79123;BME280;68526;44.600;26.032;2023-08-21T00:28:13;100571.13;;;24.06;58.84
79123;BME280;68526;44.600;26.032;2023-08-21T00:28:29;100568.72;;;24.08;58.18
79123;BME280;68526;44.600;26.032;2023-08-21T00:28:48;100577.91;;;24.08;58.67
79123;BME280;68526;44.600;26.032;2023-08-21T00:29:04;100577.94;;;24.05;58.75
79123;BME280;68526;44.600;26.032;2023-08-21T00:29:20;100568.75;;;24.01;59.04
79123;BME280;68526;44.600;26.032;2023-08-21T00:29:36;100570.38;;;23.98;59.19
79123;BME280;68526;44.600;26.032;2023-08-21T00:29:52;100567.19;;;23.96;59.09
79123;BME280;68526;44.600;26.032;2023-08-21T00:30:09;100575.16;;;23.94;59.14
79123;BME280;68526;44.600;26.032;2023-08-21T00:30:25;100568.34;;;23.98;58.72
79123;BME280;68526;44.600;26.032;2023-08-21T00:30:42;100571.94;;;23.99;58.81
79123;BME280;68526;44.600;26.032;2023-08-21T00:31:00;100579.97;;;23.93;59.20
79123;BME280;68526;44.600;26.032;2023-08-21T00:31:16;100571.59;;;23.90;58.89
79123;BME280;68526;44.600;26.032;2023-08-21T00:31:32;100576.75;;;23.95;58.81
79123;BME280;68526;44.600;26.032;2023-08-21T00:31:49;100579.56;;;23.98;58.54
79123;BME280;68526;44.600;26.032;2023-08-21T00:32:04;100562.34;;;24.00;58.49
79123;BME280;68526;44.600;26.032;2023-08-21T00:32:21;100573.94;;;23.95;58.95
79123;BME280;68526;44.600;26.032;2023-08-21T00:32:37;100568.34;;;23.95;58.69
79123;BME280;68526;44.600;26.032;2023-08-21T00:32:53;100572.78;;;23.96;58.82
79123;BME280;68526;44.600;26.032;2023-08-21T00:33:09;100580.75;;;23.97;59.03
79123;BME280;68526;44.600;26.032;2023-08-21T00:33:25;100577.16;;;23.97;58.77
79123;BME280;68526;44.600;26.032;2023-08-21T00:33:41;100580.75;;;23.97;58.82
79123;BME280;68526;44.600;26.032;2023-08-21T00:33:57;100573.56;;;23.96;58.88
79123;BME280;68526;44.600;26.032;2023-08-21T00:34:13;100573.16;;;23.98;58.56
79123;BME280;68526;44.600;26.032;2023-08-21T00:34:29;100574.75;;;23.95;58.98
79123;BME280;68526;44.600;26.032;2023-08-21T00:34:45;100573.56;;;23.93;58.95
79123;BME280;68526;44.600;26.032;2023-08-21T00:35:01;100577.97;;;23.97;58.55
79123;BME280;68526;44.600;26.032;2023-08-21T00:35:17;100570.78;;;23.96;58.80
79123;BME280;68526;44.600;26.032;2023-08-21T00:35:33;100571.53;;;24.01;58.59
79123;BME280;68526;44.600;26.032;2023-08-21T00:35:49;100576.38;;;23.96;58.80
79123;BME280;68526;44.600;26.032;2023-08-21T00:36:05;100572.38;;;23.94;58.97
79123;BME280;68526;44.600;26.032;2023-08-21T00:36:21;100580.38;;;23.92;58.98
79123;BME280;68526;44.600;26.032;2023-08-21T00:36:37;100571.97;;;23.92;59.00
79123;BME280;68526;44.600;26.032;2023-08-21T00:36:53;100575.56;;;23.92;59.04
79123;BME280;68526;44.600;26.032;2023-08-21T00:37:09;100574.38;;;23.93;58.76
79123;BME280;68526;44.600;26.032;2023-08-21T00:37:25;100580.38;;;23.92;58.86
79123;BME280;68526;44.600;26.032;2023-08-21T00:37:40;100580.38;;;23.92;59.06
79123;BME280;68526;44.600;26.032;2023-08-21T00:37:57;100576.03;;;23.84;59.10
79123;BME280;68526;44.600;26.032;2023-08-21T00:38:14;100577.59;;;23.85;59.05
79123;BME280;68526;44.600;26.032;2023-08-21T00:38:29;100578.41;;;23.85;59.30
79123;BME280;68526;44.600;26.032;2023-08-21T00:38:45;100574.78;;;23.88;58.99
79123;BME280;68526;44.600;26.032;2023-08-21T00:39:01;100580.41;;;23.85;58.94
79123;BME280;68526;44.600;26.032;2023-08-21T00:39:17;100572.41;;;23.87;58.90
79123;BME280;68526;44.600;26.032;2023-08-21T00:39:33;100578.81;;;23.77;59.48
79123;BME280;68526;44.600;26.032;2023-08-21T00:39:49;100583.63;;;23.80;59.45
79123;BME280;68526;44.600;26.032;2023-08-21T00:40:07;100577.59;;;23.81;59.37
79123;BME280;68526;44.600;26.032;2023-08-21T00:40:23;100577.59;;;23.78;59.21
79123;BME280;68526;44.600;26.032;2023-08-21T00:40:40;100575.22;;;23.76;59.19
79123;BME280;68526;44.600;26.032;2023-08-21T00:40:56;100582.41;;;23.81;59.18
79123;BME280;68526;44.600;26.032;2023-08-21T00:41:13;100576.00;;;23.87;58.81
79123;BME280;68526;44.600;26.032;2023-08-21T00:41:28;100576.00;;;23.91;58.83
79123;BME280;68526;44.600;26.032;2023-08-21T00:41:44;100583.97;;;23.89;58.86
79123;BME280;68526;44.600;26.032;2023-08-21T00:42:00;100576.78;;;23.88;58.98
79123;BME280;68526;44.600;26.032;2023-08-21T00:42:16;100579.59;;;23.91;59.01
79123;BME280;68526;44.600;26.032;2023-08-21T00:42:32;100578.00;;;23.90;58.67
79123;BME280;68526;44.600;26.032;2023-08-21T00:42:48;100577.56;;;23.92;58.49
79123;BME280;68526;44.600;26.032;2023-08-21T00:43:04;100579.59;;;23.91;58.78
79123;BME280;68526;44.600;26.032;2023-08-21T00:43:20;100583.59;;;23.87;59.38
79123;BME280;68526;44.600;26.032;2023-08-21T00:43:36;100575.19;;;23.83;59.12
79123;BME280;68526;44.600;26.032;2023-08-21T00:43:52;100577.59;;;23.85;58.89
79123;BME280;68526;44.600;26.032;2023-08-21T00:44:08;100580.00;;;23.90;58.85
79123;BME280;68526;44.600;26.032;2023-08-21T00:44:25;100580.75;;;23.94;58.71
79123;BME280;68526;44.600;26.032;2023-08-21T00:44:40;100580.75;;;23.94;58.52
79123;BME280;68526;44.600;26.032;2023-08-21T00:44:56;100585.56;;;23.93;58.60
79123;BME280;68526;44.600;26.032;2023-08-21T00:45:12;100580.34;;;23.95;58.70
79123;BME280;68526;44.600;26.032;2023-08-21T00:45:28;100584.75;;;23.96;58.45
79123;BME280;68526;44.600;26.032;2023-08-21T00:45:45;100581.16;;;23.96;58.72
79123;BME280;68526;44.600;26.032;2023-08-21T00:46:02;100577.97;;;23.97;58.37
79123;BME280;68526;44.600;26.032;2023-08-21T00:46:19;100579.97;;;23.93;58.60
79123;BME280;68526;44.600;26.032;2023-08-21T00:46:35;100580.75;;;23.94;58.58
79123;BME280;68526;44.600;26.032;2023-08-21T00:46:52;100581.19;;;23.89;58.92
79123;BME280;68526;44.600;26.032;2023-08-21T00:47:08;100584.00;;;23.85;58.88
79123;BME280;68526;44.600;26.032;2023-08-21T00:47:24;100580.41;;;23.85;59.10
79123;BME280;68526;44.600;26.032;2023-08-21T00:47:41;100581.59;;;23.87;58.93
79123;BME280;68526;44.600;26.032;2023-08-21T00:47:59;100580.38;;;23.88;59.07
79123;BME280;68526;44.600;26.032;2023-08-21T00:48:15;100582.03;;;23.75;59.16
79123;BME280;68526;44.600;26.032;2023-08-21T00:48:31;100578.44;;;23.78;58.82
79123;BME280;68526;44.600;26.032;2023-08-21T00:48:47;100578.81;;;23.77;59.21
79123;BME280;68526;44.600;26.032;2023-08-21T00:49:04;100582.81;;;23.76;59.51
79123;BME280;68526;44.600;26.032;2023-08-21T00:49:21;100575.25;;;23.73;59.31
79123;BME280;68526;44.600;26.032;2023-08-21T00:49:37;100578.03;;;23.76;58.98
79123;BME280;68526;44.600;26.032;2023-08-21T00:49:55;100580.81;;;23.80;59.00
79123;BME280;68526;44.600;26.032;2023-08-21T00:50:12;100580.03;;;23.79;59.22
79123;BME280;68526;44.600;26.032;2023-08-21T00:50:28;100580.03;;;23.79;58.83
79123;BME280;68526;44.600;26.032;2023-08-21T00:50:44;100580.81;;;23.80;58.75
79123;BME280;68526;44.600;26.032;2023-08-21T00:51:01;100580.44;;;23.70;59.58
79123;BME280;68526;44.600;26.032;2023-08-21T00:51:17;100576.84;;;23.70;59.47
79123;BME280;68526;44.600;26.032;2023-08-21T00:51:34;100575.66;;;23.67;59.63
79123;BME280;68526;44.600;26.032;2023-08-21T00:51:51;100572.88;;;23.67;59.23
79123;BME280;68526;44.600;26.032;2023-08-21T00:52:08;100574.47;;;23.68;59.81
79123;BME280;68526;44.600;26.032;2023-08-21T00:52:26;100582.06;;;23.64;59.89
79123;BME280;68526;44.600;26.032;2023-08-21T00:52:43;100573.66;;;23.64;59.50
79123;BME280;68526;44.600;26.032;2023-08-21T00:53:00;100573.28;;;23.66;59.44
79123;BME280;68526;44.600;26.032;2023-08-21T00:53:18;100573.28;;;23.66;59.58
79123;BME280;68526;44.600;26.032;2023-08-21T00:53:34;100572.47;;;23.62;59.64
79123;BME280;68526;44.600;26.032;2023-08-21T00:53:50;100580.84;;;23.65;59.70
79123;BME280;68526;44.600;26.032;2023-08-21T00:54:06;100575.25;;;23.65;59.40
79123;BME280;68526;44.600;26.032;2023-08-21T00:54:22;100578.88;;;23.66;59.80
79123;BME280;68526;44.600;26.032;2023-08-21T00:54:38;100570.06;;;23.64;59.96
79123;BME280;68526;44.600;26.032;2023-08-21T00:54:55;100570.06;;;23.67;59.47
79123;BME280;68526;44.600;26.032;2023-08-21T00:55:13;100578.44;;;23.71;59.25
79123;BME280;68526;44.600;26.032;2023-08-21T00:55:30;100572.03;;;23.70;59.38
79123;BME280;68526;44.600;26.032;2023-08-21T00:55:46;100574.47;;;23.68;59.45
79123;BME280;68526;44.600;26.032;2023-08-21T00:56:02;100576.47;;;23.64;59.75
79123;BME280;68526;44.600;26.032;2023-08-21T00:56:18;100570.88;;;23.64;59.89
79123;BME280;68526;44.600;26.032;2023-08-21T00:56:35;100575.66;;;23.64;60.12
79123;BME280;68526;44.600;26.032;2023-08-21T00:56:51;100578.47;;;23.64;59.93
79123;BME280;68526;44.600;26.032;2023-08-21T00:57:08;100574.47;;;23.65;59.99
79123;BME280;68526;44.600;26.032;2023-08-21T00:57:26;100580.06;;;23.68;59.62
79123;BME280;68526;44.600;26.032;2023-08-21T00:57:42;100578.06;;;23.69;59.47
79123;BME280;68526;44.600;26.032;2023-08-21T00:57:59;100579.25;;;23.68;59.49
79123;BME280;68526;44.600;26.032;2023-08-21T00:58:16;100581.25;;;23.64;59.40
79123;BME280;68526;44.600;26.032;2023-08-21T00:58:33;100575.66;;;23.60;59.87
79123;BME280;68526;44.600;26.032;2023-08-21T00:58:49;100579.25;;;23.64;59.79
79123;BME280;68526;44.600;26.032;2023-08-21T00:59:05;100573.28;;;23.66;59.67
79123;BME280;68526;44.600;26.032;2023-08-21T00:59:22;100580.44;;;23.70;59.62
79123;BME280;68526;44.600;26.032;2023-08-21T00:59:38;100585.25;;;23.74;59.40
79123;BME280;68526;44.600;26.032;2023-08-21T00:59:54;100575.25;;;23.69;59.49
79123;BME280;68526;44.600;26.032;2023-08-21T01:00:11;100580.84;;;23.69;59.42
79123;BME280;68526;44.600;26.032;2023-08-21T01:00:28;100581.63;;;23.69;59.60
79123;BME280;68526;44.600;26.032;2023-08-21T01:00:46;100576.06;;;23.69;59.57
79123;BME280;68526;44.600;26.032;2023-08-21T01:01:05;100581.22;;;23.75;59.23
79123;BME280;68526;44.600;26.032;2023-08-21T01:01:22;100578.84;;;23.69;59.51
79123;BME280;68526;44.600;26.032;2023-08-21T01:01:40;100579.25;;;23.61;59.46
79123;BME280;68526;44.600;26.032;2023-08-21T01:01:57;100584.84;;;23.61;59.78
79123;BME280;68526;44.600;26.032;2023-08-21T01:02:13;100581.66;;;23.62;59.50
79123;BME280;68526;44.600;26.032;2023-08-21T01:02:29;100576.88;;;23.63;59.43
79123;BME280;68526;44.600;26.032;2023-08-21T01:02:45;100577.25;;;23.61;59.68
79123;BME280;68526;44.600;26.032;2023-08-21T01:03:01;100580.84;;;23.58;59.66
79123;BME280;68526;44.600;26.032;2023-08-21T01:03:16;100584.03;;;23.57;59.71
79123;BME280;68526;44.600;26.032;2023-08-21T01:03:32;100575.66;;;23.57;59.93
79123;BME280;68526;44.600;26.032;2023-08-21T01:03:49;100579.66;;;23.56;59.90
79123;BME280;68526;44.600;26.032;2023-08-21T01:04:05;100576.88;;;23.56;59.88
79123;BME280;68526;44.600;26.032;2023-08-21T01:04:21;100584.44;;;23.52;60.28
79123;BME280;68526;44.600;26.032;2023-08-21T01:04:38;100573.28;;;23.52;59.94
79123;BME280;68526;44.600;26.032;2023-08-21T01:04:54;100574.47;;;23.54;59.68
79123;BME280;68526;44.600;26.032;2023-08-21T01:05:10;100578.03;;;23.58;59.88
79123;BME280;68526;44.600;26.032;2023-08-21T01:05:25;100573.66;;;23.61;59.88
79123;BME280;68526;44.600;26.032;2023-08-21T01:05:42;100585.22;;;23.59;60.02
79123;BME280;68526;44.600;26.032;2023-08-21T01:05:58;100577.66;;;23.56;59.96
79123;BME280;68526;44.600;26.032;2023-08-21T01:06:14;100577.66;;;23.56;60.15
79123;BME280;68526;44.600;26.032;2023-08-21T01:06:30;100583.63;;;23.58;60.03
79123;BME280;68526;44.600;26.032;2023-08-21T01:06:46;100586.47;;;23.62;59.47
79123;BME280;68526;44.600;26.032;2023-08-21T01:07:04;100583.25;;;23.56;59.95
79123;BME280;68526;44.600;26.032;2023-08-21T01:07:25;100584.44;;;23.52;60.05
79123;BME280;68526;44.600;26.032;2023-08-21T01:07:47;100576.03;;;23.59;59.63
79123;BME280;68526;44.600;26.032;2023-08-21T01:08:09;100577.28;;;23.54;59.92
79123;BME280;68526;44.600;26.032;2023-08-21T01:08:38;100589.25;;;23.55;59.83
79123;BME280;68526;44.600;26.032;2023-08-21T01:08:59;100575.28;;;23.51;59.90
79123;BME280;68526;44.600;26.032;2023-08-21T01:09:22;100579.25;;;23.54;60.01
79123;BME280;68526;44.600;26.032;2023-08-21T01:09:45;100588.03;;;23.52;60.10
79123;BME280;68526;44.600;26.032;2023-08-21T01:10:07;100586.88;;;23.50;60.15
79123;BME280;68526;44.600;26.032;2023-08-21T01:10:36;100580.47;;;23.49;59.94
79123;BME280;68526;44.600;26.032;2023-08-21T01:11:04;100581.69;;;23.48;60.36
79123;BME280;68526;44.600;26.032;2023-08-21T01:11:28;100588.06;;;23.49;60.13
79123;BME280;68526;44.600;26.032;2023-08-21T01:11:52;100582.47;;;23.49;60.00
79123;BME280;68526;44.600;26.032;2023-08-21T01:12:19;100590.84;;;23.56;59.90
79123;BME280;68526;44.600;26.032;2023-08-21T01:12:44;100589.66;;;23.50;59.90
79123;BME280;68526;44.600;26.032;2023-08-21T01:13:08;100583.28;;;23.49;60.08
79123;BME280;68526;44.600;26.032;2023-08-21T01:13:36;100584.47;;;23.55;59.82
79123;BME280;68526;44.600;26.032;2023-08-21T01:14:01;100582.84;;;23.47;60.04
79123;BME280;68526;44.600;26.032;2023-08-21T01:14:28;100582.47;;;23.49;60.27
79123;BME280;68526;44.600;26.032;2023-08-21T01:14:50;100591.66;;;23.49;60.29
79123;BME280;68526;44.600;26.032;2023-08-21T01:15:07;100576.50;;;23.43;60.26
79123;BME280;68526;44.600;26.032;2023-08-21T01:15:25;100591.25;;;23.47;60.20
79123;BME280;68526;44.600;26.032;2023-08-21T01:15:43;100583.69;;;23.44;60.11
79123;BME280;68526;44.600;26.032;2023-08-21T01:16:00;100582.88;;;23.43;60.12
79123;BME280;68526;44.600;26.032;2023-08-21T01:16:17;100580.47;;;23.45;60.39
79123;BME280;68526;44.600;26.032;2023-08-21T01:16:34;100585.66;;;23.47;60.11
79123;BME280;68526;44.600;26.032;2023-08-21T01:16:53;100581.69;;;23.44;60.32
79123;BME280;68526;44.600;26.032;2023-08-21T01:17:11;100585.69;;;23.43;60.18
79123;BME280;68526;44.600;26.032;2023-08-21T01:17:30;100583.66;;;23.48;60.10
79123;BME280;68526;44.600;26.032;2023-08-21T01:17:47;100593.25;;;23.46;60.37
79123;BME280;68526;44.600;26.032;2023-08-21T01:18:05;100592.47;;;23.42;60.35
79123;BME280;68526;44.600;26.032;2023-08-21T01:18:22;100589.66;;;23.39;60.36
79123;BME280;68526;44.600;26.032;2023-08-21T01:18:38;100585.25;;;23.45;60.05
79123;BME280;68526;44.600;26.032;2023-08-21T01:18:55;100583.69;;;23.44;60.13
79123;BME280;68526;44.600;26.032;2023-08-21T01:19:20;100584.09;;;23.42;60.40
79123;BME280;68526;44.600;26.032;2023-08-21T01:19:41;100589.66;;;23.39;60.62
79123;BME280;68526;44.600;26.032;2023-08-21T01:19:59;100587.66;;;23.39;60.24
79123;BME280;68526;44.600;26.032;2023-08-21T01:20:16;100586.84;;;23.46;60.18
79123;BME280;68526;44.600;26.032;2023-08-21T01:20:33;100589.25;;;23.48;59.92
79123;BME280;68526;44.600;26.032;2023-08-21T01:20:49;100593.25;;;23.46;60.27
79123;BME280;68526;44.600;26.032;2023-08-21T01:21:05;100594.03;;;23.47;59.97
79123;BME280;68526;44.600;26.032;2023-08-21T01:21:21;100594.84;;;23.44;60.15
79123;BME280;68526;44.600;26.032;2023-08-21T01:21:38;100586.44;;;23.48;59.76
79123;BME280;68526;44.600;26.032;2023-08-21T01:21:54;100594.03;;;23.51;59.89
79123;BME280;68526;44.600;26.032;2023-08-21T01:22:10;100593.66;;;23.49;60.01
79123;BME280;68526;44.600;26.032;2023-08-21T01:22:27;100593.66;;;23.49;60.00
79123;BME280;68526;44.600;26.032;2023-08-21T01:22:43;100590.88;;;23.49;59.80
79123;BME280;68526;44.600;26.032;2023-08-21T01:23:04;100592.44;;;23.50;59.80
79123;BME280;68526;44.600;26.032;2023-08-21T01:23:33;100590.47;;;23.50;59.87
79123;BME280;68526;44.600;26.032;2023-08-21T01:23:50;100592.03;;;23.48;60.02
79123;BME280;68526;44.600;26.032;2023-08-21T01:24:06;100595.66;;;23.48;59.98
79123;BME280;68526;44.600;26.032;2023-08-21T01:24:22;100586.84;;;23.46;59.90
79123;BME280;68526;44.600;26.032;2023-08-21T01:24:37;100585.28;;;23.49;60.32
79123;BME280;68526;44.600;26.032;2023-08-21T01:24:53;100590.06;;;23.44;60.05
79123;BME280;68526;44.600;26.032;2023-08-21T01:25:09;100594.44;;;23.45;60.34
79123;BME280;68526;44.600;26.032;2023-08-21T01:25:25;100593.28;;;23.43;60.38
79123;BME280;68526;44.600;26.032;2023-08-21T01:25:41;100595.66;;;23.41;60.24
79123;BME280;68526;44.600;26.032;2023-08-21T01:25:58;100588.88;;;23.38;60.68
79123;BME280;68526;44.600;26.032;2023-08-21T01:26:15;100592.06;;;23.37;60.36
79123;BME280;68526;44.600;26.032;2023-08-21T01:26:31;100592.47;;;23.35;60.30
79123;BME280;68526;44.600;26.032;2023-08-21T01:26:47;100592.84;;;23.44;60.08
79123;BME280;68526;44.600;26.032;2023-08-21T01:27:03;100591.66;;;23.49;59.88
79123;BME280;68526;44.600;26.032;2023-08-21T01:27:19;100587.28;;;23.48;59.87